LDLO/LSZ METAR and TAF weather

Enter ICAO airport designator
Station Type Date Time Source
LDLO METAR 2021/05/09 14:00 UTC NOAA

LDLO 091400Z 30008KT CAVOK 21/03 Q1018


Station Type Date Time Source
LDLO Decoded METAR 2021/05/09 14:00 UTC NOAA

Losinj Island, Croatia (LDLO) 44-33-57N 014-23-35E
May 09, 2021 - 10:00 AM EDT / 2021.05.09 1400 UTC
Wind: from the WNW (300 degrees) at 9 MPH (8 KT):0
Visibility: greater than 7 mile(s):0
Temperature: 69 F (21 C)
Dew Point: 37 F (3 C)
Relative Humidity: 30%
Pressure (altimeter): 30.06 in. Hg (1018 hPa)
ob: LDLO 091400Z 30008KT CAVOK 21/03 Q1018
cycle: 14

Station Type Date Time Source
LDLO TAF 2021/05/09 15:09 UTC NOAA

TAF
AMD LDLO 091505Z 0915/1012 CNL

Example: see airport list